sensor_id;sensor_type;location;lat;lon;timestamp;temperature;humidity
32769;DHT22;23049;54.304;8.826;2023-06-22T00:01:49;17.10;99.90
32769;DHT22;23049;54.304;8.826;2023-06-22T00:04:14;17.00;99.90
32769;DHT22;23049;54.304;8.826;2023-06-22T00:06:40;16.80;99.90
32769;DHT22;23049;54.304;8.826;2023-06-22T00:09:05;16.70;99.90
32769;DHT22;23049;54.304;8.826;2023-06-22T00:11:32;16.60;99.90
32769;DHT22;23049;54.304;8.826;2023-06-22T00:13:59;16.40;99.90
32769;DHT22;23049;54.304;8.826;2023-06-22T00:16:24;16.30;99.90
32769;DHT22;23049;54.304;8.826;2023-06-22T00:18:50;16.20;99.90
32769;DHT22;23049;54.304;8.826;2023-06-22T00:21:15;16.10;99.90
32769;DHT22;23049;54.304;8.826;2023-06-22T00:28:51;15.60;99.90
32769;DHT22;23049;54.304;8.826;2023-06-22T00:31:17;15.40;99.90
32769;DHT22;23049;54.304;8.826;2023-06-22T00:33:42;15.30;99.90
32769;DHT22;23049;54.304;8.826;2023-06-22T00:36:08;15.30;99.90
32769;DHT22;23049;54.304;8.826;2023-06-22T00:38:34;15.30;99.90
32769;DHT22;23049;54.304;8.826;2023-06-22T00:40:59;15.40;99.90
32769;DHT22;23049;54.304;8.826;2023-06-22T00:43:25;15.60;99.90
32769;DHT22;23049;54.304;8.826;2023-06-22T00:45:50;15.60;99.90
32769;DHT22;23049;54.304;8.826;2023-06-22T00:48:16;15.40;99.90
32769;DHT22;23049;54.304;8.826;2023-06-22T00:50:42;15.50;99.90
32769;DHT22;23049;54.304;8.826;2023-06-22T00:53:08;15.60;99.90
32769;DHT22;23049;54.304;8.826;2023-06-22T00:55:37;15.80;99.90
32769;DHT22;23049;54.304;8.826;2023-06-22T00:58:04;15.90;99.90
32769;DHT22;23049;54.304;8.826;2023-06-22T01:00:33;15.90;99.90
32769;DHT22;23049;54.304;8.826;2023-06-22T01:02:58;15.90;99.90
32769;DHT22;23049;54.304;8.826;2023-06-22T01:05:24;16.20;99.90
32769;DHT22;23049;54.304;8.826;2023-06-22T01:10:41;16.20;99.90
32769;DHT22;23049;54.304;8.826;2023-06-22T01:15:49;16.00;99.90
32769;DHT22;23049;54.304;8.826;2023-06-22T01:18:17;16.10;99.90
32769;DHT22;23049;54.304;8.826;2023-06-22T01:20:43;16.20;99.90
32769;DHT22;23049;54.304;8.826;2023-06-22T01:23:20;16.30;99.90
32769;DHT22;23049;54.304;8.826;2023-06-22T01:26:08;16.20;99.90
32769;DHT22;23049;54.304;8.826;2023-06-22T01:31:17;15.90;99.90
32769;DHT22;23049;54.304;8.826;2023-06-22T01:33:44;15.80;99.90
32769;DHT22;23049;54.304;8.826;2023-06-22T01:36:10;16.00;99.90
32769;DHT22;23049;54.304;8.826;2023-06-22T01:38:37;16.20;99.90
32769;DHT22;23049;54.304;8.826;2023-06-22T01:41:02;16.30;99.90
32769;DHT22;23049;54.304;8.826;2023-06-22T01:47:08;16.50;99.90
32769;DHT22;23049;54.304;8.826;2023-06-22T01:49:33;16.70;99.90
32769;DHT22;23049;54.304;8.826;2023-06-22T01:51:59;16.80;99.90
32769;DHT22;23049;54.304;8.826;2023-06-22T01:54:24;16.80;99.90
32769;DHT22;23049;54.304;8.826;2023-06-22T01:56:50;16.60;99.90
32769;DHT22;23049;54.304;8.826;2023-06-22T01:59:32;16.40;99.90
32769;DHT22;23049;54.304;8.826;2023-06-22T02:02:06;16.20;99.90
32769;DHT22;23049;54.304;8.826;2023-06-22T02:04:38;16.00;99.90
32769;DHT22;23049;54.304;8.826;2023-06-22T02:07:09;16.00;99.90
32769;DHT22;23049;54.304;8.826;2023-06-22T02:09:37;15.90;99.90
32769;DHT22;23049;54.304;8.826;2023-06-22T02:12:04;15.60;99.90
32769;DHT22;23049;54.304;8.826;2023-06-22T02:14:30;15.30;99.90
32769;DHT22;23049;54.304;8.826;2023-06-22T02:16:55;15.20;99.90
32769;DHT22;23049;54.304;8.826;2023-06-22T02:19:24;15.40;99.90
32769;DHT22;23049;54.304;8.826;2023-06-22T02:21:50;15.50;99.90
32769;DHT22;23049;54.304;8.826;2023-06-22T02:24:15;15.30;99.90
32769;DHT22;23049;54.304;8.826;2023-06-22T02:26:41;15.10;99.90
32769;DHT22;23049;54.304;8.826;2023-06-22T02:31:38;14.90;99.90
32769;DHT22;23049;54.304;8.826;2023-06-22T02:34:04;15.00;99.90
32769;DHT22;23049;54.304;8.826;2023-06-22T02:36:30;15.10;99.90
32769;DHT22;23049;54.304;8.826;2023-06-22T02:38:55;15.40;99.90
32769;DHT22;23049;54.304;8.826;2023-06-22T02:41:24;15.50;99.90
32769;DHT22;23049;54.304;8.826;2023-06-22T02:43:49;15.50;99.90
32769;DHT22;23049;54.304;8.826;2023-06-22T02:46:15;15.20;99.90
32769;DHT22;23049;54.304;8.826;2023-06-22T02:48:40;15.00;99.90
32769;DHT22;23049;54.304;8.826;2023-06-22T02:51:06;14.80;99.90
32769;DHT22;23049;54.304;8.826;2023-06-22T02:53:32;14.60;99.90
32769;DHT22;23049;54.304;8.826;2023-06-22T02:55:58;14.30;99.90
32769;DHT22;23049;54.304;8.826;2023-06-22T02:58:23;14.40;99.90
32769;DHT22;23049;54.304;8.826;2023-06-22T03:00:49;14.50;99.90
32769;DHT22;23049;54.304;8.826;2023-06-22T03:03:18;14.60;99.90
32769;DHT22;23049;54.304;8.826;2023-06-22T03:05:44;14.60;99.90
32769;DHT22;23049;54.304;8.826;2023-06-22T03:08:09;14.60;99.90
32769;DHT22;23049;54.304;8.826;2023-06-22T03:10:35;14.30;99.90
32769;DHT22;23049;54.304;8.826;2023-06-22T03:13:01;14.40;99.90
32769;DHT22;23049;54.304;8.826;2023-06-22T03:15:26;14.30;99.90
32769;DHT22;23049;54.304;8.826;2023-06-22T03:20:19;14.50;99.90
32769;DHT22;23049;54.304;8.826;2023-06-22T03:22:45;14.90;99.90
32769;DHT22;23049;54.304;8.826;2023-06-22T03:27:39;15.20;99.90
32769;DHT22;23049;54.304;8.826;2023-06-22T03:30:05;15.30;99.90
32769;DHT22;23049;54.304;8.826;2023-06-22T03:32:32;15.60;99.90
32769;DHT22;23049;54.304;8.826;2023-06-22T03:37:27;15.60;99.90
32769;DHT22;23049;54.304;8.826;2023-06-22T03:39:53;15.30;99.90
32769;DHT22;23049;54.304;8.826;2023-06-22T03:42:18;15.30;99.90
32769;DHT22;23049;54.304;8.826;2023-06-22T03:44:44;15.10;99.90
32769;DHT22;23049;54.304;8.826;2023-06-22T03:47:09;15.10;99.90
32769;DHT22;23049;54.304;8.826;2023-06-22T03:49:35;15.30;99.90
32769;DHT22;23049;54.304;8.826;2023-06-22T03:52:01;15.60;99.90
32769;DHT22;23049;54.304;8.826;2023-06-22T03:59:12;15.40;99.90
32769;DHT22;23049;54.304;8.826;2023-06-22T04:01:37;15.40;99.90
32769;DHT22;23049;54.304;8.826;2023-06-22T04:04:03;15.60;99.90
32769;DHT22;23049;54.304;8.826;2023-06-22T04:06:28;15.80;99.90
32769;DHT22;23049;54.304;8.826;2023-06-22T04:08:54;16.10;99.90
32769;DHT22;23049;54.304;8.826;2023-06-22T04:11:19;16.30;99.90
32769;DHT22;23049;54.304;8.826;2023-06-22T04:13:45;16.40;99.90
32769;DHT22;23049;54.304;8.826;2023-06-22T04:16:10;16.50;99.90
32769;DHT22;23049;54.304;8.826;2023-06-22T04:18:36;16.60;99.90
32769;DHT22;23049;54.304;8.826;2023-06-22T04:21:02;16.30;99.90
32769;DHT22;23049;54.304;8.826;2023-06-22T04:26:34;16.40;99.90
32769;DHT22;23049;54.304;8.826;2023-06-22T04:29:03;16.50;99.90
32769;DHT22;23049;54.304;8.826;2023-06-22T04:31:33;16.70;99.90
32769;DHT22;23049;54.304;8.826;2023-06-22T04:34:02;16.70;99.90
32769;DHT22;23049;54.304;8.826;2023-06-22T04:36:37;16.80;99.90
32769;DHT22;23049;54.304;8.826;2023-06-22T04:39:12;17.00;99.90
32769;DHT22;23049;54.304;8.826;2023-06-22T04:41:38;17.10;99.90
32769;DHT22;23049;54.304;8.826;2023-06-22T04:44:28;17.20;99.90
32769;DHT22;23049;54.304;8.826;2023-06-22T04:46:54;17.40;99.90
32769;DHT22;23049;54.304;8.826;2023-06-22T04:49:25;17.40;99.90
32769;DHT22;23049;54.304;8.826;2023-06-22T04:51:57;17.50;99.90
32769;DHT22;23049;54.304;8.826;2023-06-22T04:54:23;17.70;99.90
32769;DHT22;23049;54.304;8.826;2023-06-22T04:56:49;17.90;99.90
32769;DHT22;23049;54.304;8.826;2023-06-22T05:04:30;18.50;99.90
32769;DHT22;23049;54.304;8.826;2023-06-22T05:06:59;18.60;99.90
32769;DHT22;23049;54.304;8.826;2023-06-22T05:09:25;18.80;99.90
32769;DHT22;23049;54.304;8.826;2023-06-22T05:11:51;19.00;99.90
32769;DHT22;23049;54.304;8.826;2023-06-22T05:14:17;19.10;99.90
32769;DHT22;23049;54.304;8.826;2023-06-22T05:16:43;19.30;99.90
32769;DHT22;23049;54.304;8.826;2023-06-22T05:19:09;19.50;99.90
32769;DHT22;23049;54.304;8.826;2023-06-22T05:21:35;19.60;99.90
32769;DHT22;23049;54.304;8.826;2023-06-22T05:26:30;19.60;99.90
32769;DHT22;23049;54.304;8.826;2023-06-22T05:31:34;19.90;99.90
32769;DHT22;23049;54.304;8.826;2023-06-22T05:34:00;19.90;99.90
32769;DHT22;23049;54.304;8.826;2023-06-22T05:36:26;19.80;99.90
32769;DHT22;23049;54.304;8.826;2023-06-22T05:38:52;19.80;99.90
32769;DHT22;23049;54.304;8.826;2023-06-22T05:41:17;19.70;99.90
32769;DHT22;23049;54.304;8.826;2023-06-22T05:43:43;19.40;99.90
32769;DHT22;23049;54.304;8.826;2023-06-22T05:49:33;19.70;99.90
32769;DHT22;23049;54.304;8.826;2023-06-22T05:51:59;19.90;99.90
32769;DHT22;23049;54.304;8.826;2023-06-22T05:54:25;19.90;99.90
32769;DHT22;23049;54.304;8.826;2023-06-22T05:56:50;19.90;99.90
32769;DHT22;23049;54.304;8.826;2023-06-22T05:59:17;20.00;99.90
32769;DHT22;23049;54.304;8.826;2023-06-22T06:01:42;20.20;99.90
32769;DHT22;23049;54.304;8.826;2023-06-22T06:04:08;20.20;99.90
32769;DHT22;23049;54.304;8.826;2023-06-22T06:06:33;20.30;99.90
32769;DHT22;23049;54.304;8.826;2023-06-22T06:11:33;20.70;99.90
32769;DHT22;23049;54.304;8.826;2023-06-22T06:13:58;20.80;99.90
32769;DHT22;23049;54.304;8.826;2023-06-22T06:16:24;21.00;99.90
32769;DHT22;23049;54.304;8.826;2023-06-22T06:24:26;21.30;99.90
32769;DHT22;23049;54.304;8.826;2023-06-22T06:26:52;21.60;99.90
32769;DHT22;23049;54.304;8.826;2023-06-22T06:29:17;21.80;99.90
32769;DHT22;23049;54.304;8.826;2023-06-22T06:31:43;21.20;99.90
32769;DHT22;23049;54.304;8.826;2023-06-22T06:34:08;20.90;99.90
32769;DHT22;23049;54.304;8.826;2023-06-22T06:36:34;20.80;99.90
32769;DHT22;23049;54.304;8.826;2023-06-22T06:38:59;20.80;99.90
32769;DHT22;23049;54.304;8.826;2023-06-22T06:41:25;20.90;99.90
32769;DHT22;23049;54.304;8.826;2023-06-22T06:43:50;21.20;99.90
32769;DHT22;23049;54.304;8.826;2023-06-22T06:46:16;21.30;99.90
32769;DHT22;23049;54.304;8.826;2023-06-22T06:48:41;21.40;99.90
32769;DHT22;23049;54.304;8.826;2023-06-22T06:51:07;21.50;99.90
32769;DHT22;23049;54.304;8.826;2023-06-22T06:55:55;21.60;99.90
32769;DHT22;23049;54.304;8.826;2023-06-22T06:58:20;21.50;99.90
32769;DHT22;23049;54.304;8.826;2023-06-22T07:04:12;21.10;99.90
32769;DHT22;23049;54.304;8.826;2023-06-22T07:06:38;21.10;99.90
32769;DHT22;23049;54.304;8.826;2023-06-22T07:09:04;20.80;99.90
32769;DHT22;23049;54.304;8.826;2023-06-22T07:11:29;20.80;99.90
32769;DHT22;23049;54.304;8.826;2023-06-22T07:13:55;20.90;99.90
32769;DHT22;23049;54.304;8.826;2023-06-22T07:18:59;21.30;99.90
32769;DHT22;23049;54.304;8.826;2023-06-22T07:21:25;21.40;99.90
32769;DHT22;23049;54.304;8.826;2023-06-22T07:23:51;21.50;99.90
32769;DHT22;23049;54.304;8.826;2023-06-22T07:26:16;21.50;99.90
32769;DHT22;23049;54.304;8.826;2023-06-22T07:28:42;21.40;99.90
32769;DHT22;23049;54.304;8.826;2023-06-22T07:31:07;21.50;99.90
32769;DHT22;23049;54.304;8.826;2023-06-22T07:42:38;21.40;99.90
32769;DHT22;23049;54.304;8.826;2023-06-22T07:49:20;21.20;99.90
32769;DHT22;23049;54.304;8.826;2023-06-22T07:51:46;21.20;99.90
32769;DHT22;23049;54.304;8.826;2023-06-22T07:54:11;21.30;99.90
32769;DHT22;23049;54.304;8.826;2023-06-22T07:56:37;21.20;99.90
32769;DHT22;23049;54.304;8.826;2023-06-22T07:59:02;21.20;99.90
32769;DHT22;23049;54.304;8.826;2023-06-22T08:01:30;21.30;99.90
32769;DHT22;23049;54.304;8.826;2023-06-22T08:03:55;21.40;99.90
32769;DHT22;23049;54.304;8.826;2023-06-22T08:06:21;21.50;99.90
32769;DHT22;23049;54.304;8.826;2023-06-22T08:08:47;21.40;99.90
32769;DHT22;23049;54.304;8.826;2023-06-22T08:11:14;21.40;99.90
32769;DHT22;23049;54.304;8.826;2023-06-22T08:18:57;21.10;99.90
32769;DHT22;23049;54.304;8.826;2023-06-22T08:21:22;21.30;99.90
32769;DHT22;23049;54.304;8.826;2023-06-22T08:23:48;21.40;99.90
32769;DHT22;23049;54.304;8.826;2023-06-22T08:26:14;21.40;99.90
32769;DHT22;23049;54.304;8.826;2023-06-22T08:28:39;21.40;99.90
32769;DHT22;23049;54.304;8.826;2023-06-22T08:31:05;21.40;99.90
32769;DHT22;23049;54.304;8.826;2023-06-22T08:35:53;21.30;99.90
32769;DHT22;23049;54.304;8.826;2023-06-22T08:38:19;21.30;99.90
32769;DHT22;23049;54.304;8.826;2023-06-22T08:40:45;21.40;99.90
32769;DHT22;23049;54.304;8.826;2023-06-22T08:43:10;21.50;99.90
32769;DHT22;23049;54.304;8.826;2023-06-22T08:45:36;21.60;99.90
32769;DHT22;23049;54.304;8.826;2023-06-22T08:48:01;21.60;99.90
32769;DHT22;23049;54.304;8.826;2023-06-22T08:50:27;21.70;99.90
32769;DHT22;23049;54.304;8.826;2023-06-22T08:52:53;21.80;99.90
32769;DHT22;23049;54.304;8.826;2023-06-22T08:55:18;21.90;99.90
32769;DHT22;23049;54.304;8.826;2023-06-22T09:01:43;21.90;99.90
32769;DHT22;23049;54.304;8.826;2023-06-22T09:04:11;21.90;99.90
32769;DHT22;23049;54.304;8.826;2023-06-22T09:06:37;22.00;99.90
32769;DHT22;23049;54.304;8.826;2023-06-22T09:09:06;22.10;99.90
32769;DHT22;23049;54.304;8.826;2023-06-22T09:11:32;22.20;99.90
32769;DHT22;23049;54.304;8.826;2023-06-22T09:13:57;22.30;99.90
32769;DHT22;23049;54.304;8.826;2023-06-22T09:16:23;22.20;99.90
32769;DHT22;23049;54.304;8.826;2023-06-22T09:18:48;22.30;99.90
32769;DHT22;23049;54.304;8.826;2023-06-22T09:21:14;22.30;99.90
32769;DHT22;23049;54.304;8.826;2023-06-22T09:26:47;22.40;99.90
32769;DHT22;23049;54.304;8.826;2023-06-22T09:29:13;22.40;99.90
32769;DHT22;23049;54.304;8.826;2023-06-22T09:31:38;22.40;99.90
32769;DHT22;23049;54.304;8.826;2023-06-22T09:34:04;22.40;99.90
32769;DHT22;23049;54.304;8.826;2023-06-22T09:36:30;22.50;99.90
32769;DHT22;23049;54.304;8.826;2023-06-22T09:38:55;22.50;99.90
32769;DHT22;23049;54.304;8.826;2023-06-22T09:41:24;22.50;99.90
32769;DHT22;23049;54.304;8.826;2023-06-22T09:43:49;22.50;99.90
32769;DHT22;23049;54.304;8.826;2023-06-22T09:46:15;22.50;99.90
32769;DHT22;23049;54.304;8.826;2023-06-22T09:48:41;22.40;99.90
32769;DHT22;23049;54.304;8.826;2023-06-22T09:51:06;22.50;99.90
32769;DHT22;23049;54.304;8.826;2023-06-22T09:56:01;22.40;99.90
32769;DHT22;23049;54.304;8.826;2023-06-22T09:58:27;22.60;99.90
32769;DHT22;23049;54.304;8.826;2023-06-22T10:00:52;22.70;99.90
32769;DHT22;23049;54.304;8.826;2023-06-22T10:03:19;22.80;99.90
32769;DHT22;23049;54.304;8.826;2023-06-22T10:05:45;22.80;99.90
32769;DHT22;23049;54.304;8.826;2023-06-22T10:08:10;23.00;99.90
32769;DHT22;23049;54.304;8.826;2023-06-22T10:10:36;23.20;99.90
32769;DHT22;23049;54.304;8.826;2023-06-22T10:13:08;23.20;99.90
32769;DHT22;23049;54.304;8.826;2023-06-22T10:15:37;23.20;99.90
32769;DHT22;23049;54.304;8.826;2023-06-22T10:18:03;23.20;99.90
32769;DHT22;23049;54.304;8.826;2023-06-22T10:20:28;23.40;99.90
32769;DHT22;23049;54.304;8.826;2023-06-22T10:22:54;23.60;99.90
32769;DHT22;23049;54.304;8.826;2023-06-22T10:25:20;23.80;99.90
32769;DHT22;23049;54.304;8.826;2023-06-22T10:27:45;23.90;99.90
32769;DHT22;23049;54.304;8.826;2023-06-22T10:30:11;23.90;99.90
32769;DHT22;23049;54.304;8.826;2023-06-22T10:32:41;23.90;99.90
32769;DHT22;23049;54.304;8.826;2023-06-22T10:35:07;23.90;99.90
32769;DHT22;23049;54.304;8.826;2023-06-22T10:37:33;23.90;99.90
32769;DHT22;23049;54.304;8.826;2023-06-22T10:39:59;24.10;99.90
32769;DHT22;23049;54.304;8.826;2023-06-22T10:42:24;24.10;99.90
32769;DHT22;23049;54.304;8.826;2023-06-22T10:44:50;24.10;99.90
32769;DHT22;23049;54.304;8.826;2023-06-22T10:47:15;24.00;99.90
32769;DHT22;23049;54.304;8.826;2023-06-22T10:49:41;24.20;99.90
32769;DHT22;23049;54.304;8.826;2023-06-22T10:52:07;24.20;99.90
32769;DHT22;23049;54.304;8.826;2023-06-22T10:54:33;24.20;99.90
32769;DHT22;23049;54.304;8.826;2023-06-22T10:56:59;24.20;99.90
32769;DHT22;23049;54.304;8.826;2023-06-22T10:59:25;24.10;99.90
32769;DHT22;23049;54.304;8.826;2023-06-22T11:01:51;23.80;99.90
32769;DHT22;23049;54.304;8.826;2023-06-22T11:04:17;23.80;99.90
32769;DHT22;23049;54.304;8.826;2023-06-22T11:06:43;23.70;99.90
32769;DHT22;23049;54.304;8.826;2023-06-22T11:09:10;23.90;99.90
32769;DHT22;23049;54.304;8.826;2023-06-22T11:11:35;24.20;99.90
32769;DHT22;23049;54.304;8.826;2023-06-22T11:14:01;24.20;99.90
32769;DHT22;23049;54.304;8.826;2023-06-22T11:16:27;24.20;99.90
32769;DHT22;23049;54.304;8.826;2023-06-22T11:21:33;24.40;99.90
32769;DHT22;23049;54.304;8.826;2023-06-22T11:23:59;24.60;99.90
32769;DHT22;23049;54.304;8.826;2023-06-22T11:26:25;24.70;99.90
32769;DHT22;23049;54.304;8.826;2023-06-22T11:28:52;24.80;99.90
32769;DHT22;23049;54.304;8.826;2023-06-22T11:31:18;25.00;99.90
32769;DHT22;23049;54.304;8.826;2023-06-22T11:33:43;25.30;99.90
32769;DHT22;23049;54.304;8.826;2023-06-22T11:36:11;25.30;99.90
32769;DHT22;23049;54.304;8.826;2023-06-22T11:38:37;24.80;99.90
32769;DHT22;23049;54.304;8.826;2023-06-22T11:41:07;25.00;99.90
32769;DHT22;23049;54.304;8.826;2023-06-22T11:43:33;25.20;99.90
32769;DHT22;23049;54.304;8.826;2023-06-22T11:45:59;25.50;99.90
32769;DHT22;23049;54.304;8.826;2023-06-22T11:48:25;25.70;99.90
32769;DHT22;23049;54.304;8.826;2023-06-22T11:50:50;25.00;99.90
32769;DHT22;23049;54.304;8.826;2023-06-22T11:53:16;25.10;99.90
32769;DHT22;23049;54.304;8.826;2023-06-22T11:55:44;25.50;99.90
32769;DHT22;23049;54.304;8.826;2023-06-22T11:58:10;25.60;99.90
32769;DHT22;23049;54.304;8.826;2023-06-22T12:00:36;25.60;99.90
32769;DHT22;23049;54.304;8.826;2023-06-22T12:03:02;25.00;99.90
32769;DHT22;23049;54.304;8.826;2023-06-22T12:05:28;24.70;99.90
32769;DHT22;23049;54.304;8.826;2023-06-22T12:07:54;24.50;99.90
32769;DHT22;23049;54.304;8.826;2023-06-22T12:10:20;24.20;99.90
32769;DHT22;23049;54.304;8.826;2023-06-22T12:12:46;24.50;99.90
32769;DHT22;23049;54.304;8.826;2023-06-22T12:15:11;24.50;99.90
32769;DHT22;23049;54.304;8.826;2023-06-22T12:17:37;24.30;99.90
32769;DHT22;23049;54.304;8.826;2023-06-22T12:20:03;23.80;99.90
32769;DHT22;23049;54.304;8.826;2023-06-22T12:22:32;23.60;99.90
32769;DHT22;23049;54.304;8.826;2023-06-22T12:24:57;23.80;99.90
32769;DHT22;23049;54.304;8.826;2023-06-22T12:27:23;23.90;99.90
32769;DHT22;23049;54.304;8.826;2023-06-22T12:29:49;23.70;99.90
32769;DHT22;23049;54.304;8.826;2023-06-22T12:32:14;23.50;99.90
32769;DHT22;23049;54.304;8.826;2023-06-22T12:34:41;23.50;99.90
32769;DHT22;23049;54.304;8.826;2023-06-22T12:37:06;23.40;99.90
32769;DHT22;23049;54.304;8.826;2023-06-22T12:39:32;23.40;99.90
32769;DHT22;23049;54.304;8.826;2023-06-22T12:41:57;23.80;99.90
32769;DHT22;23049;54.304;8.826;2023-06-22T12:44:23;24.20;99.90
32769;DHT22;23049;54.304;8.826;2023-06-22T12:46:49;24.50;99.90
32769;DHT22;23049;54.304;8.826;2023-06-22T12:49:14;24.70;99.90
32769;DHT22;23049;54.304;8.826;2023-06-22T12:51:40;24.80;99.90
32769;DHT22;23049;54.304;8.826;2023-06-22T12:54:09;24.90;99.90
32769;DHT22;23049;54.304;8.826;2023-06-22T12:56:35;24.70;99.90
32769;DHT22;23049;54.304;8.826;2023-06-22T12:59:01;24.50;99.90
32769;DHT22;23049;54.304;8.826;2023-06-22T13:01:27;24.30;99.90
32769;DHT22;23049;54.304;8.826;2023-06-22T13:03:53;24.20;99.90
32769;DHT22;23049;54.304;8.826;2023-06-22T13:06:18;24.40;99.90
32769;DHT22;23049;54.304;8.826;2023-06-22T13:08:44;24.60;99.90
32769;DHT22;23049;54.304;8.826;2023-06-22T13:11:09;24.50;99.90
32769;DHT22;23049;54.304;8.826;2023-06-22T13:16:42;24.30;99.90
32769;DHT22;23049;54.304;8.826;2023-06-22T13:19:07;24.60;99.90
32769;DHT22;23049;54.304;8.826;2023-06-22T13:21:33;24.50;99.90
32769;DHT22;23049;54.304;8.826;2023-06-22T13:23:59;24.70;99.90
32769;DHT22;23049;54.304;8.826;2023-06-22T13:26:24;24.50;99.90
32769;DHT22;23049;54.304;8.826;2023-06-22T13:28:50;24.60;99.90
32769;DHT22;23049;54.304;8.826;2023-06-22T13:31:16;24.70;99.90
32769;DHT22;23049;54.304;8.826;2023-06-22T13:36:54;24.50;99.90
32769;DHT22;23049;54.304;8.826;2023-06-22T13:39:19;24.50;99.90
32769;DHT22;23049;54.304;8.826;2023-06-22T13:41:45;24.50;99.90
32769;DHT22;23049;54.304;8.826;2023-06-22T13:44:10;24.60;99.90
32769;DHT22;23049;54.304;8.826;2023-06-22T13:46:36;24.40;99.90
32769;DHT22;23049;54.304;8.826;2023-06-22T13:49:01;24.30;99.90
32769;DHT22;23049;54.304;8.826;2023-06-22T13:51:27;24.20;99.90
32769;DHT22;23049;54.304;8.826;2023-06-22T13:53:52;24.20;99.90
32769;DHT22;23049;54.304;8.826;2023-06-22T13:56:18;24.30;99.90
32769;DHT22;23049;54.304;8.826;2023-06-22T13:58:43;24.30;99.90
32769;DHT22;23049;54.304;8.826;2023-06-22T14:01:09;24.20;99.90
32769;DHT22;23049;54.304;8.826;2023-06-22T14:09:10;24.20;99.90
32769;DHT22;23049;54.304;8.826;2023-06-22T14:11:35;24.30;99.90
32769;DHT22;23049;54.304;8.826;2023-06-22T14:14:01;24.20;99.90
32769;DHT22;23049;54.304;8.826;2023-06-22T14:16:26;24.20;99.90
32769;DHT22;23049;54.304;8.826;2023-06-22T14:18:52;24.10;99.90
32769;DHT22;23049;54.304;8.826;2023-06-22T14:21:17;24.10;99.90
32769;DHT22;23049;54.304;8.826;2023-06-22T14:23:44;24.00;99.90
32769;DHT22;23049;54.304;8.826;2023-06-22T14:26:14;23.80;99.90
32769;DHT22;23049;54.304;8.826;2023-06-22T14:28:43;23.80;99.90
32769;DHT22;23049;54.304;8.826;2023-06-22T14:31:13;23.70;99.90
32769;DHT22;23049;54.304;8.826;2023-06-22T14:36:17;23.40;99.90
32769;DHT22;23049;54.304;8.826;2023-06-22T14:38:43;23.40;99.90
32769;DHT22;23049;54.304;8.826;2023-06-22T14:41:08;23.40;99.90
32769;DHT22;23049;54.304;8.826;2023-06-22T14:43:34;23.30;99.90
32769;DHT22;23049;54.304;8.826;2023-06-22T14:45:59;23.30;99.90
32769;DHT22;23049;54.304;8.826;2023-06-22T14:48:25;23.30;99.90
32769;DHT22;23049;54.304;8.826;2023-06-22T14:50:51;23.30;99.90
32769;DHT22;23049;54.304;8.826;2023-06-22T14:53:16;23.20;99.90
32769;DHT22;23049;54.304;8.826;2023-06-22T14:55:42;23.20;99.90
32769;DHT22;23049;54.304;8.826;2023-06-22T14:58:07;23.20;99.90
32769;DHT22;23049;54.304;8.826;2023-06-22T15:00:33;23.20;99.90
32769;DHT22;23049;54.304;8.826;2023-06-22T15:02:58;23.20;99.90
32769;DHT22;23049;54.304;8.826;2023-06-22T15:05:24;23.10;99.90
32769;DHT22;23049;54.304;8.826;2023-06-22T15:07:50;23.10;99.90
32769;DHT22;23049;54.304;8.826;2023-06-22T15:10:15;23.00;99.90
32769;DHT22;23049;54.304;8.826;2023-06-22T15:12:41;23.10;99.90
32769;DHT22;23049;54.304;8.826;2023-06-22T15:15:07;22.90;99.90
32769;DHT22;23049;54.304;8.826;2023-06-22T15:17:33;22.90;99.90
32769;DHT22;23049;54.304;8.826;2023-06-22T15:19:58;22.70;99.90
32769;DHT22;23049;54.304;8.826;2023-06-22T15:22:24;22.80;99.90
32769;DHT22;23049;54.304;8.826;2023-06-22T15:24:49;22.80;99.90
32769;DHT22;23049;54.304;8.826;2023-06-22T15:27:18;22.80;99.90
32769;DHT22;23049;54.304;8.826;2023-06-22T15:29:44;22.70;99.90
32769;DHT22;23049;54.304;8.826;2023-06-22T15:32:09;22.60;99.90
32769;DHT22;23049;54.304;8.826;2023-06-22T15:34:35;22.70;99.90
32769;DHT22;23049;54.304;8.826;2023-06-22T15:37:00;22.60;99.90
32769;DHT22;23049;54.304;8.826;2023-06-22T15:39:26;22.60;99.90
32769;DHT22;23049;54.304;8.826;2023-06-22T15:41:52;22.50;99.90
32769;DHT22;23049;54.304;8.826;2023-06-22T15:44:19;22.50;99.90
32769;DHT22;23049;54.304;8.826;2023-06-22T15:46:45;22.40;99.90
32769;DHT22;23049;54.304;8.826;2023-06-22T15:49:11;22.40;99.90
32769;DHT22;23049;54.304;8.826;2023-06-22T15:51:36;22.30;99.90
32769;DHT22;23049;54.304;8.826;2023-06-22T15:54:02;22.30;99.90
32769;DHT22;23049;54.304;8.826;2023-06-22T15:56:27;22.30;99.90
32769;DHT22;23049;54.304;8.826;2023-06-22T15:58:53;22.30;99.90
32769;DHT22;23049;54.304;8.826;2023-06-22T16:01:19;22.30;99.90
32769;DHT22;23049;54.304;8.826;2023-06-22T16:03:44;22.20;99.90
32769;DHT22;23049;54.304;8.826;2023-06-22T16:06:10;22.20;99.90
32769;DHT22;23049;54.304;8.826;2023-06-22T16:08:35;22.10;99.90
32769;DHT22;23049;54.304;8.826;2023-06-22T16:11:01;22.10;99.90
32769;DHT22;23049;54.304;8.826;2023-06-22T16:13:26;22.10;99.90
32769;DHT22;23049;54.304;8.826;2023-06-22T16:15:52;22.10;99.90
32769;DHT22;23049;54.304;8.826;2023-06-22T16:18:17;22.10;99.90
32769;DHT22;23049;54.304;8.826;2023-06-22T16:20:43;22.00;99.90
32769;DHT22;23049;54.304;8.826;2023-06-22T16:23:08;22.00;99.90
32769;DHT22;23049;54.304;8.826;2023-06-22T16:25:34;21.90;99.90
32769;DHT22;23049;54.304;8.826;2023-06-22T16:27:59;21.90;99.90
32769;DHT22;23049;54.304;8.826;2023-06-22T16:30:25;21.90;99.90
32769;DHT22;23049;54.304;8.826;2023-06-22T16:35:05;21.90;99.90
32769;DHT22;23049;54.304;8.826;2023-06-22T16:37:31;21.90;99.90
32769;DHT22;23049;54.304;8.826;2023-06-22T16:42:19;21.80;99.90
32769;DHT22;23049;54.304;8.826;2023-06-22T16:44:45;21.80;99.90
32769;DHT22;23049;54.304;8.826;2023-06-22T16:47:10;21.80;99.90
32769;DHT22;23049;54.304;8.826;2023-06-22T16:49:36;21.70;99.90
32769;DHT22;23049;54.304;8.826;2023-06-22T16:52:02;21.80;99.90
32769;DHT22;23049;54.304;8.826;2023-06-22T16:54:29;21.70;99.90
32769;DHT22;23049;54.304;8.826;2023-06-22T16:56:54;21.70;99.90
32769;DHT22;23049;54.304;8.826;2023-06-22T16:59:20;21.60;99.90
32769;DHT22;23049;54.304;8.826;2023-06-22T17:01:52;21.60;99.90
32769;DHT22;23049;54.304;8.826;2023-06-22T17:04:20;21.60;99.90
32769;DHT22;23049;54.304;8.826;2023-06-22T17:06:47;21.60;99.90
32769;DHT22;23049;54.304;8.826;2023-06-22T17:09:13;21.50;99.90
32769;DHT22;23049;54.304;8.826;2023-06-22T17:11:39;21.50;99.90
32769;DHT22;23049;54.304;8.826;2023-06-22T17:14:05;21.40;99.90
32769;DHT22;23049;54.304;8.826;2023-06-22T17:16:31;21.50;99.90
32769;DHT22;23049;54.304;8.826;2023-06-22T17:18:57;21.50;99.90
32769;DHT22;23049;54.304;8.826;2023-06-22T17:21:24;21.40;99.90